Albion, Nebraska
Current Conditions -  °F | °C
As of 9:55 PM on Wednesday 22 Oct 2014 (Local Time) from KBVN Reporting Station
Overcast Overcast  
Wind Chill: 56°   Ceiling: 700
Heat Index: 56°   Visibility: 10mi
Dew Point: 55°   Wind: 5mph
Humidity: 94%   Direction: 340°NNW
Pressure: 30.05"   Gusts: NA
Location:  41.69°N, 98°W
Report Text: KBVN 230255Z AUTO 34004KT 10SM OVC007 14/13 A3005 RMK AO2 T01350125
Loading
Personal Weather Stations






























Interactive Weather Map New forecast layout! Learn more

10-Day Weather Forecast

Advertisements
Track Severe Weather on mobile